createdAt,value
2018-07-06T00:02:37.067Z,63.28
2018-07-06T00:05:23.264Z,62.88
2018-07-06T00:08:09.817Z,63.12
2018-07-06T00:10:56.043Z,63.10
2018-07-06T00:13:42.288Z,63.10
2018-07-06T00:16:28.724Z,63.32
2018-07-06T00:19:14.941Z,62.68
2018-07-06T00:22:01.130Z,63.05
2018-07-06T00:24:47.423Z,63.44
2018-07-06T00:27:33.750Z,63.25
2018-07-06T00:30:19.982Z,62.67
2018-07-06T00:33:06.882Z,62.94
2018-07-06T00:35:53.088Z,63.21
2018-07-06T00:38:39.251Z,63.39
2018-07-06T00:41:25.796Z,62.70
2018-07-06T00:44:11.917Z,62.41
2018-07-06T00:46:52.190Z,62.18
2018-07-06T00:49:41.960Z,62.45
2018-07-06T00:52:28.119Z,62.99
2018-07-06T00:55:14.524Z,63.08
2018-07-06T00:58:00.631Z,62.63
2018-07-06T01:00:46.794Z,63.77
2018-07-06T01:03:33.188Z,63.50
2018-07-06T01:06:20.150Z,63.97
2018-07-06T01:09:06.498Z,63.55
2018-07-06T01:11:52.883Z,64.12
2018-07-06T01:14:39.049Z,63.69
2018-07-06T01:17:25.562Z,63.09
2018-07-06T01:20:11.980Z,63.37
2018-07-06T01:22:58.575Z,63.44
2018-07-06T01:25:44.707Z,63.12
2018-07-06T01:28:30.872Z,63.07
2018-07-06T01:31:11.021Z,62.38
2018-07-06T01:33:57.299Z,63.69
2018-07-06T01:36:43.381Z,63.10
2018-07-06T01:39:31.237Z,64.08
2018-07-06T01:42:17.489Z,63.41
2018-07-06T01:45:03.656Z,63.43
2018-07-06T01:47:49.906Z,63.58
2018-07-06T01:50:36.155Z,63.51
2018-07-06T01:53:22.433Z,62.62
2018-07-06T01:56:08.831Z,62.95
2018-07-06T01:58:55.076Z,62.46
2018-07-06T02:01:41.345Z,62.52
2018-07-06T02:04:27.632Z,62.83
2018-07-06T02:07:13.719Z,63.11
2018-07-06T02:10:00.634Z,63.28
2018-07-06T02:12:47.213Z,63.29
2018-07-06T02:15:33.539Z,63.58
2018-07-06T02:18:19.710Z,63.97
2018-07-06T02:21:05.913Z,65.20
2018-07-06T02:23:52.306Z,64.88
2018-07-06T02:26:38.627Z,64.87
2018-07-06T02:29:25.385Z,63.99
2018-07-06T02:32:11.765Z,64.60
2018-07-06T02:34:57.913Z,64.11
2018-07-06T02:37:44.133Z,65.04
2018-07-06T02:40:30.400Z,65.51
2018-07-06T02:43:16.609Z,64.39
2018-07-06T02:46:03.278Z,64.82
2018-07-06T02:48:49.636Z,64.86
2018-07-06T02:51:35.928Z,65.15
2018-07-06T02:54:22.067Z,64.99
2018-07-06T02:57:02.443Z,64.09
2018-07-06T02:59:48.674Z,63.70
2018-07-06T03:02:35.184Z,64.04
2018-07-06T03:05:21.560Z,64.70
2018-07-06T03:08:07.855Z,63.92
2018-07-06T03:10:54.676Z,63.94
2018-07-06T03:13:40.950Z,63.82
2018-07-06T03:16:27.283Z,63.24
2018-07-06T03:19:14.145Z,63.78
2018-07-06T03:22:00.570Z,63.71
2018-07-06T03:24:46.793Z,64.26
2018-07-06T03:27:33.344Z,63.01
2018-07-06T03:30:19.514Z,63.23
2018-07-06T03:33:05.515Z,63.44
2018-07-06T03:35:51.995Z,63.18
2018-07-06T03:38:38.292Z,63.04
2018-07-06T03:41:24.627Z,63.49
2018-07-06T03:44:11.060Z,63.63
2018-07-06T03:46:57.343Z,63.55
2018-07-06T03:49:43.543Z,62.76
2018-07-06T03:52:29.906Z,62.90
2018-07-06T03:55:20.857Z,64.25
2018-07-06T03:58:07.159Z,65.93
2018-07-06T04:00:53.837Z,65.03
2018-07-06T04:03:40.015Z,65.17
2018-07-06T04:06:26.227Z,65.14
2018-07-06T04:09:12.930Z,64.55
2018-07-06T04:11:59.328Z,65.75
2018-07-06T04:14:45.606Z,64.80
2018-07-06T04:17:31.766Z,64.25
2018-07-06T04:20:18.103Z,64.03
2018-07-06T04:23:04.350Z,63.42
2018-07-06T04:25:51.079Z,64.24
2018-07-06T04:28:37.317Z,64.38
2018-07-06T04:31:23.857Z,65.61
2018-07-06T04:34:10.182Z,66.22
2018-07-06T04:36:56.600Z,65.74
2018-07-06T04:39:42.787Z,65.00
2018-07-06T04:42:29.279Z,65.24
2018-07-06T04:45:15.559Z,64.81
2018-07-06T04:48:01.983Z,64.94
2018-07-06T04:50:48.281Z,63.78
2018-07-06T04:53:34.736Z,64.83
2018-07-06T04:56:20.863Z,65.89
2018-07-06T04:59:07.681Z,65.18
2018-07-06T05:01:53.834Z,65.13
2018-07-06T05:04:40.344Z,64.10
2018-07-06T05:07:26.461Z,63.59
2018-07-06T05:10:12.672Z,63.56
2018-07-06T05:12:58.991Z,64.22
2018-07-06T05:15:45.343Z,64.40
2018-07-06T05:18:31.703Z,64.89
2018-07-06T05:21:12.190Z,64.75
2018-07-06T05:23:58.555Z,64.57
2018-07-06T05:26:44.788Z,64.24
2018-07-06T05:29:31.127Z,64.34
2018-07-06T05:32:17.427Z,64.06
2018-07-06T05:34:57.767Z,64.63
2018-07-06T05:37:43.999Z,64.58
2018-07-06T05:40:30.359Z,65.21
2018-07-06T05:43:16.607Z,64.45
2018-07-06T05:46:02.786Z,64.06
2018-07-06T05:48:49.410Z,64.22
2018-07-06T05:51:35.640Z,64.69
2018-07-06T05:54:21.954Z,64.47
2018-07-06T05:57:08.079Z,63.78
2018-07-06T05:59:54.207Z,62.28
2018-07-06T06:02:40.558Z,62.48
2018-07-06T06:05:27.031Z,63.01
2018-07-06T06:07:54.810Z,62.55
2018-07-06T06:10:24.125Z,62.59
2018-07-06T06:12:53.453Z,62.39
2018-07-06T06:15:22.747Z,62.09
2018-07-06T06:17:52.037Z,63.03
2018-07-06T06:20:21.355Z,62.63
2018-07-06T06:22:50.656Z,62.62
2018-07-06T06:25:20.006Z,62.96
2018-07-06T06:27:49.684Z,62.41
2018-07-06T06:30:19.223Z,62.61
2018-07-06T06:32:48.734Z,62.00
2018-07-06T06:35:18.094Z,61.56
2018-07-06T06:37:47.431Z,61.32
2018-07-06T06:40:16.727Z,61.52
2018-07-06T06:42:46.216Z,61.87
2018-07-06T06:45:15.574Z,61.93
2018-07-06T06:47:44.919Z,61.05
2018-07-06T06:50:14.340Z,63.35
2018-07-06T06:52:43.828Z,63.78
2018-07-06T06:55:13.149Z,64.20
2018-07-06T06:57:42.635Z,63.04
2018-07-06T07:00:11.949Z,63.59
2018-07-06T07:02:41.424Z,62.75
2018-07-06T07:05:10.796Z,63.36
2018-07-06T07:07:40.267Z,62.36
2018-07-06T07:10:09.579Z,63.14
2018-07-06T07:12:39.235Z,63.69
2018-07-06T07:15:08.610Z,64.01
2018-07-06T07:17:37.924Z,66.01
2018-07-06T07:20:07.307Z,65.95
2018-07-06T07:22:36.660Z,66.08
2018-07-06T07:25:05.970Z,65.90
2018-07-06T07:27:35.356Z,66.69
2018-07-06T07:30:04.768Z,66.42
2018-07-06T07:32:34.041Z,66.51
2018-07-06T07:35:03.906Z,65.37
2018-07-06T07:37:33.234Z,65.26
2018-07-06T07:40:09.266Z,65.58
2018-07-06T07:42:38.579Z,65.98
2018-07-06T07:45:07.917Z,66.95
2018-07-06T07:47:37.341Z,67.44
2018-07-06T07:50:06.687Z,66.36
2018-07-06T07:52:53.396Z,66.15
2018-07-06T07:55:22.812Z,66.97
2018-07-06T07:57:52.153Z,67.82
2018-07-06T08:00:21.716Z,69.06
2018-07-06T08:02:50.997Z,69.15
2018-07-06T08:05:20.344Z,68.19
2018-07-06T08:07:49.693Z,66.85
2018-07-06T08:10:19.096Z,67.05
2018-07-06T08:12:48.472Z,67.21
2018-07-06T08:15:18.159Z,67.58
2018-07-06T08:17:47.455Z,66.25
2018-07-06T08:20:16.811Z,67.48
2018-07-06T08:22:46.167Z,67.19
2018-07-06T08:25:15.513Z,68.01
2018-07-06T08:27:44.840Z,67.38
2018-07-06T08:30:14.194Z,66.77
2018-07-06T08:32:43.528Z,66.42
2018-07-06T08:35:30.358Z,65.78
2018-07-06T08:38:03.317Z,65.30
2018-07-06T08:40:32.668Z,66.31
2018-07-06T08:43:04.275Z,64.87
2018-07-06T08:45:34.322Z,64.93
2018-07-06T08:48:03.743Z,65.15
2018-07-06T08:50:33.089Z,64.21
2018-07-06T08:53:02.670Z,64.27
2018-07-06T08:55:32.248Z,63.47
2018-07-06T08:58:01.348Z,63.78
2018-07-06T09:00:30.675Z,63.62
2018-07-06T09:02:59.947Z,62.37
2018-07-06T09:05:29.212Z,61.99
2018-07-06T09:07:58.577Z,61.71
2018-07-06T09:10:27.883Z,62.10
2018-07-06T09:12:57.257Z,63.39
2018-07-06T09:15:27.136Z,65.07
2018-07-06T09:17:56.530Z,65.31
2018-07-06T09:20:25.843Z,64.47
2018-07-06T09:22:55.234Z,63.52
2018-07-06T09:25:24.703Z,61.99
2018-07-06T09:27:53.974Z,60.25
2018-07-06T09:30:23.501Z,58.40
2018-07-06T09:32:52.716Z,56.66
2018-07-06T09:35:21.989Z,57.34
2018-07-06T09:37:51.396Z,55.67
2018-07-06T09:40:20.483Z,53.83
2018-07-06T09:42:49.773Z,53.01
2018-07-06T09:45:19.111Z,52.71
2018-07-06T09:47:48.420Z,50.40
2018-07-06T09:50:17.790Z,50.22
2018-07-06T09:52:47.224Z,49.25
2018-07-06T09:55:16.608Z,49.30
2018-07-06T09:57:45.915Z,46.74
2018-07-06T10:01:17.972Z,45.33
2018-07-06T10:03:47.178Z,45.50
2018-07-06T10:06:16.495Z,46.08
2018-07-06T10:08:45.963Z,45.77
2018-07-06T10:11:15.274Z,45.50
2018-07-06T10:13:44.598Z,46.83
2018-07-06T10:16:14.045Z,46.46
2018-07-06T10:18:43.343Z,45.49
2018-07-06T10:21:12.676Z,43.38
2018-07-06T10:23:42.590Z,42.42
2018-07-06T10:26:12.066Z,41.21
2018-07-06T10:33:05.901Z,42.12
2018-07-06T10:35:35.231Z,43.41
2018-07-06T10:38:04.502Z,43.83
2018-07-06T10:40:34.668Z,42.77
2018-07-06T10:43:04.015Z,41.86
2018-07-06T10:45:33.343Z,41.31
2018-07-06T10:48:02.642Z,41.97
2018-07-06T10:50:31.954Z,41.36
2018-07-06T10:53:01.464Z,38.63
2018-07-06T10:55:30.854Z,37.68
2018-07-06T10:58:00.231Z,37.56
2018-07-06T11:00:29.542Z,36.12
2018-07-06T11:02:59.059Z,35.30
2018-07-06T11:05:28.405Z,35.08
2018-07-06T11:07:57.773Z,35.71
2018-07-06T11:10:27.165Z,35.20
2018-07-06T11:12:56.541Z,34.53
2018-07-06T11:15:25.947Z,34.38
2018-07-06T11:17:55.373Z,34.93
2018-07-06T11:20:24.426Z,34.52
2018-07-06T11:22:53.777Z,34.39
2018-07-06T11:25:23.312Z,33.63
2018-07-06T11:27:52.691Z,33.58
2018-07-06T11:30:22.211Z,33.23
2018-07-06T11:32:51.614Z,31.80
2018-07-06T11:35:21.980Z,31.78
2018-07-06T11:37:51.363Z,31.12
2018-07-06T11:40:20.726Z,30.63
2018-07-06T11:42:50.062Z,28.33
2018-07-06T11:45:19.525Z,28.93
2018-07-06T11:47:49.334Z,29.70
2018-07-06T11:50:18.672Z,29.67
2018-07-06T11:52:48.016Z,30.26
2018-07-06T11:55:17.355Z,27.79
2018-07-06T11:57:49.114Z,27.12
2018-07-06T12:00:18.514Z,26.80
2018-07-06T12:02:47.877Z,27.03
2018-07-06T12:05:17.243Z,26.78
2018-07-06T12:07:46.792Z,27.46
2018-07-06T12:10:16.130Z,27.27
2018-07-06T12:12:45.454Z,26.23
2018-07-06T12:15:14.861Z,25.99
2018-07-06T12:17:44.206Z,24.48
2018-07-06T12:20:13.592Z,25.92
2018-07-06T12:22:43.272Z,26.50
2018-07-06T12:25:12.748Z,24.35
2018-07-06T12:27:42.871Z,24.95
2018-07-06T12:30:12.617Z,25.09
2018-07-06T12:32:42.006Z,23.91
2018-07-06T12:35:11.326Z,26.19
2018-07-06T12:37:40.754Z,27.48
2018-07-06T12:40:10.976Z,27.47
2018-07-06T12:42:40.302Z,27.87
2018-07-06T12:45:09.604Z,26.63
2018-07-06T12:47:39.021Z,24.74
2018-07-06T12:50:08.793Z,23.62
2018-07-06T12:52:38.376Z,24.99
2018-07-06T12:55:07.840Z,23.92
2018-07-06T12:57:37.289Z,23.82
2018-07-06T13:00:06.646Z,24.17
2018-07-06T13:02:36.575Z,25.56
2018-07-06T13:05:06.011Z,25.58
2018-07-06T13:07:35.403Z,24.35
2018-07-06T13:10:05.193Z,22.89
2018-07-06T13:12:34.494Z,21.60
2018-07-06T13:15:04.100Z,22.73
2018-07-06T13:17:33.413Z,22.99
2018-07-06T13:20:02.698Z,23.07
2018-07-06T13:22:32.032Z,21.84
2018-07-06T13:25:01.308Z,20.92
2018-07-06T13:27:30.999Z,21.89
2018-07-06T13:30:01.368Z,22.93
2018-07-06T13:32:30.772Z,22.55
2018-07-06T13:35:00.110Z,24.05
2018-07-06T13:37:29.555Z,24.45
2018-07-06T13:39:58.614Z,24.82
2018-07-06T13:42:27.893Z,23.78
2018-07-06T13:44:57.355Z,24.48
2018-07-06T13:47:26.807Z,23.77
2018-07-06T13:49:56.183Z,23.10
2018-07-06T13:52:25.628Z,23.37
2018-07-06T13:54:55.002Z,24.43
2018-07-06T13:57:24.295Z,24.68
2018-07-06T13:59:54.138Z,26.06
2018-07-06T14:02:23.436Z,25.97
2018-07-06T14:04:52.763Z,25.10
2018-07-06T14:07:22.248Z,25.82
2018-07-06T14:09:51.661Z,25.79
2018-07-06T14:12:21.007Z,25.79
2018-07-06T14:14:50.451Z,24.83
2018-07-06T14:17:19.999Z,25.22
2018-07-06T14:19:49.293Z,26.28
2018-07-06T14:22:18.934Z,26.01
2018-07-06T14:24:48.264Z,25.74
2018-07-06T14:27:17.641Z,26.54
2018-07-06T14:29:47.038Z,26.43
2018-07-06T14:32:16.338Z,25.90
2018-07-06T14:34:45.789Z,25.58
2018-07-06T14:37:15.213Z,25.14
2018-07-06T14:39:44.652Z,25.77
2018-07-06T14:42:13.954Z,26.99
2018-07-06T14:44:43.872Z,26.80
2018-07-06T14:47:13.167Z,27.33
2018-07-06T14:49:42.511Z,27.27
2018-07-06T14:52:11.875Z,27.68
2018-07-06T14:54:41.168Z,27.72
2018-07-06T14:57:10.519Z,27.81
2018-07-06T14:59:40.164Z,28.80
2018-07-06T15:02:09.521Z,27.71
2018-07-06T15:04:38.920Z,27.55
2018-07-06T15:07:08.569Z,26.96
2018-07-06T15:09:37.874Z,25.44
2018-07-06T15:12:07.286Z,26.60
2018-07-06T15:14:36.676Z,26.82
2018-07-06T15:17:06.287Z,25.96
2018-07-06T15:19:35.604Z,26.20
2018-07-06T15:22:05.158Z,24.44
2018-07-06T15:24:34.714Z,24.70
2018-07-06T15:27:04.112Z,25.82
2018-07-06T15:29:33.897Z,27.22
2018-07-06T15:32:03.506Z,28.06
2018-07-06T15:34:33.019Z,28.30
2018-07-06T15:37:02.628Z,28.21
2018-07-06T15:39:32.050Z,28.39
2018-07-06T15:42:01.361Z,29.51
2018-07-06T15:44:30.484Z,29.22
2018-07-06T15:46:59.828Z,29.87
2018-07-06T15:49:29.171Z,30.13
2018-07-06T15:51:58.902Z,29.75
2018-07-06T15:54:28.296Z,31.18
2018-07-06T15:56:57.640Z,29.91
2018-07-06T15:59:26.984Z,30.60
2018-07-06T16:01:56.312Z,31.24
2018-07-06T16:04:25.782Z,30.00
2018-07-06T16:06:55.098Z,29.73
2018-07-06T16:09:24.758Z,30.07
2018-07-06T16:11:54.317Z,29.76
2018-07-06T16:14:24.052Z,29.32
2018-07-06T16:16:53.349Z,29.06
2018-07-06T16:19:22.684Z,28.94
2018-07-06T16:21:52.100Z,29.24
2018-07-06T16:24:21.933Z,29.09
2018-07-06T16:26:51.875Z,29.19
2018-07-06T16:29:21.336Z,29.06
2018-07-06T16:31:50.719Z,28.40
2018-07-06T16:34:20.133Z,29.26
2018-07-06T16:36:49.607Z,29.44
2018-07-06T16:39:19.063Z,30.05
2018-07-06T16:41:48.461Z,30.91
2018-07-06T16:44:17.929Z,32.67
2018-07-06T16:46:47.292Z,33.11
2018-07-06T16:49:16.736Z,32.87
2018-07-06T16:51:46.227Z,34.12
2018-07-06T16:54:15.575Z,33.84
2018-07-06T16:56:44.957Z,33.62
2018-07-06T16:59:14.420Z,33.92
2018-07-06T17:01:43.739Z,33.82
2018-07-06T17:04:13.034Z,35.11
2018-07-06T17:06:42.439Z,35.00
2018-07-06T17:09:11.867Z,35.90
2018-07-06T17:11:41.269Z,35.67
2018-07-06T17:14:10.774Z,35.62
2018-07-06T17:16:40.255Z,36.09
2018-07-06T17:19:09.731Z,36.21
2018-07-06T17:21:39.423Z,35.66
2018-07-06T17:24:08.830Z,36.06
2018-07-06T17:26:38.182Z,35.36
2018-07-06T17:29:07.555Z,34.79
2018-07-06T17:31:36.905Z,34.21
2018-07-06T17:34:06.358Z,34.27
2018-07-06T17:36:35.786Z,34.11
2018-07-06T17:39:06.167Z,35.26
2018-07-06T17:41:35.567Z,34.50
2018-07-06T17:44:05.387Z,35.04
2018-07-06T17:46:34.815Z,35.36
2018-07-06T17:49:04.291Z,35.70
2018-07-06T17:51:33.718Z,36.21
2018-07-06T17:54:03.075Z,35.96
2018-07-06T17:56:32.440Z,37.11
2018-07-06T17:59:02.209Z,36.82
2018-07-06T18:01:31.615Z,38.36
2018-07-06T18:04:01.306Z,38.44
2018-07-06T18:06:30.779Z,37.67
2018-07-06T18:09:00.285Z,38.40
2018-07-06T18:11:29.561Z,38.60
2018-07-06T18:14:01.202Z,38.80
2018-07-06T18:16:30.706Z,37.87
2018-07-06T18:19:00.159Z,39.38
2018-07-06T18:21:29.613Z,39.15
2018-07-06T18:23:58.965Z,38.46
2018-07-06T18:26:28.726Z,39.88
2018-07-06T18:28:58.335Z,39.67
2018-07-06T18:31:27.858Z,39.40
2018-07-06T18:33:57.229Z,39.32
2018-07-06T18:36:26.653Z,40.01
2018-07-06T18:38:56.098Z,41.79
2018-07-06T18:41:25.517Z,42.28
2018-07-06T18:43:55.027Z,42.68
2018-07-06T18:46:24.400Z,43.59
2018-07-06T18:48:53.795Z,43.56
2018-07-06T18:51:23.800Z,43.97
2018-07-06T18:53:53.133Z,43.89
2018-07-06T18:56:22.532Z,44.12
2018-07-06T18:58:52.283Z,45.66
2018-07-06T19:01:21.894Z,45.69
2018-07-06T19:03:51.604Z,45.90
2018-07-06T19:06:21.488Z,47.08
2018-07-06T19:08:50.918Z,47.06
2018-07-06T19:11:20.386Z,48.11
2018-07-06T19:13:50.096Z,47.58
2018-07-06T19:16:19.718Z,48.32
2018-07-06T19:18:49.123Z,48.41
2018-07-06T19:21:18.631Z,48.30
2018-07-06T19:23:48.086Z,48.09
2018-07-06T19:26:17.488Z,48.74
2018-07-06T19:28:46.987Z,49.43
2018-07-06T19:31:17.291Z,50.56
2018-07-06T19:33:46.907Z,50.43
2018-07-06T19:36:16.907Z,51.32
2018-07-06T19:38:46.636Z,51.39
2018-07-06T19:41:16.450Z,51.19
2018-07-06T19:43:45.940Z,51.09
2018-07-06T19:46:15.510Z,51.99
2018-07-06T19:48:45.093Z,51.40
2018-07-06T19:51:14.915Z,52.28
2018-07-06T19:53:44.641Z,52.67
2018-07-06T19:56:13.971Z,51.94
2018-07-06T19:58:43.678Z,52.96
2018-07-06T20:01:13.083Z,52.87
2018-07-06T20:03:42.498Z,53.01
2018-07-06T20:06:11.925Z,53.06
2018-07-06T20:08:41.589Z,53.08
2018-07-06T20:11:10.954Z,53.38
2018-07-06T20:13:40.392Z,53.12
2018-07-06T20:16:09.817Z,53.04
2018-07-06T20:18:39.296Z,53.92
2018-07-06T20:21:09.228Z,54.01
2018-07-06T20:23:38.647Z,54.34
2018-07-06T20:26:08.103Z,54.22
2018-07-06T20:28:37.502Z,53.99
2018-07-06T20:31:06.963Z,53.99
2018-07-06T20:33:36.328Z,53.95
2018-07-06T20:36:05.728Z,54.24
2018-07-06T20:38:35.016Z,54.43
2018-07-06T20:41:04.461Z,55.36
2018-07-06T20:43:34.488Z,54.88
2018-07-06T20:46:04.011Z,55.02
2018-07-06T20:48:33.392Z,55.18
2018-07-06T20:51:02.936Z,55.06
2018-07-06T20:53:32.273Z,55.51
2018-07-06T20:56:01.599Z,55.23
2018-07-06T20:58:31.072Z,56.23
2018-07-06T21:01:00.473Z,55.37
2018-07-06T21:03:29.882Z,56.08
2018-07-06T21:05:59.414Z,56.29
2018-07-06T21:08:28.514Z,55.65
2018-07-06T21:10:57.875Z,55.83
2018-07-06T21:13:27.223Z,56.05
2018-07-06T21:15:56.584Z,56.72
2018-07-06T21:18:26.222Z,56.79
2018-07-06T21:20:55.837Z,57.01
2018-07-06T21:23:25.214Z,57.11
2018-07-06T21:25:54.501Z,57.28
2018-07-06T21:28:24.244Z,57.77
2018-07-06T21:30:53.532Z,56.89
2018-07-06T21:33:26.481Z,56.55
2018-07-06T21:35:55.921Z,57.08
2018-07-06T21:38:25.306Z,57.40
2018-07-06T21:40:54.695Z,57.36
2018-07-06T21:43:24.063Z,57.45
2018-07-06T21:45:54.507Z,58.38
2018-07-06T21:48:24.359Z,58.68
2018-07-06T21:50:53.873Z,58.33
2018-07-06T21:53:23.349Z,58.73
2018-07-06T21:55:52.770Z,58.70
2018-07-06T21:58:21.864Z,58.81
2018-07-06T22:00:51.584Z,58.22
2018-07-06T22:03:21.009Z,58.06
2018-07-06T22:05:50.402Z,58.17
2018-07-06T22:08:19.775Z,58.89
2018-07-06T22:10:49.243Z,59.05
2018-07-06T22:13:18.612Z,58.66
2018-07-06T22:15:48.243Z,58.77
2018-07-06T22:18:18.774Z,59.04
2018-07-06T22:20:49.538Z,59.71
2018-07-06T22:23:18.839Z,59.55
2018-07-06T22:25:48.184Z,59.76
2018-07-06T22:28:17.520Z,59.40
2018-07-06T22:30:47.035Z,59.17
2018-07-06T22:33:16.453Z,59.88
2018-07-06T22:35:45.759Z,59.71
2018-07-06T22:38:15.160Z,59.79
2018-07-06T22:40:44.501Z,60.30
2018-07-06T22:43:13.833Z,60.31
2018-07-06T22:45:43.168Z,60.79
2018-07-06T22:48:12.476Z,60.64
2018-07-06T22:50:41.841Z,61.12
2018-07-06T22:53:11.165Z,61.13
2018-07-06T22:55:40.835Z,61.11
2018-07-06T22:58:10.220Z,61.21
2018-07-06T23:00:39.846Z,61.40
2018-07-06T23:03:09.222Z,61.50
2018-07-06T23:05:38.500Z,61.90
2018-07-06T23:08:07.840Z,61.96
2018-07-06T23:10:37.191Z,61.83
2018-07-06T23:13:06.860Z,61.93
2018-07-06T23:15:36.175Z,62.44
2018-07-06T23:18:06.195Z,62.90
2018-07-06T23:20:35.523Z,62.95
2018-07-06T23:23:08.717Z,63.42
2018-07-06T23:25:41.151Z,63.47
2018-07-06T23:28:10.486Z,63.92
2018-07-06T23:30:42.877Z,62.41
2018-07-06T23:33:12.778Z,62.92
2018-07-06T23:35:42.107Z,63.91
2018-07-06T23:38:11.482Z,63.67
2018-07-06T23:40:40.802Z,64.08
2018-07-06T23:43:10.095Z,63.73
2018-07-06T23:45:39.379Z,63.58
2018-07-06T23:48:08.700Z,63.76
2018-07-06T23:50:38.069Z,64.75
2018-07-06T23:53:07.638Z,64.69
2018-07-06T23:55:37.350Z,64.73
2018-07-06T23:58:07.056Z,64.93
